sensor_id;sensor_type;location;lat;lon;timestamp;pressure;altitude;pressure_sealevel;temperature;humidity
34893;BME280;21106;52.240;20.902;2022-07-29T05:44:37;100678.09;;;20.13;57.79
34893;BME280;21106;52.240;20.902;2022-07-29T05:49:43;100670.72;;;20.24;57.55
34893;BME280;21106;52.240;20.902;2022-07-29T05:54:49;100657.56;;;20.34;57.10
34893;BME280;21106;52.240;20.902;2022-07-29T05:59:56;100663.20;;;20.50;56.89
34893;BME280;21106;52.240;20.902;2022-07-29T06:05:02;100659.58;;;20.67;56.63
34893;BME280;21106;52.240;20.902;2022-07-29T06:10:09;100658.05;;;20.94;56.31
34893;BME280;21106;52.240;20.902;2022-07-29T06:15:15;100658.95;;;21.21;55.83
34893;BME280;21106;52.240;20.902;2022-07-29T06:20:20;100659.48;;;21.34;55.07
34893;BME280;21106;52.240;20.902;2022-07-29T06:25:27;100649.94;;;21.47;54.85
34893;BME280;21106;52.240;20.902;2022-07-29T06:30:38;100654.41;;;21.63;54.56
34893;BME280;21106;52.240;20.902;2022-07-29T06:35:44;100650.75;;;21.73;54.12
34893;BME280;21106;52.240;20.902;2022-07-29T06:40:52;100651.26;;;21.79;53.45
34893;BME280;21106;52.240;20.902;2022-07-29T06:46:13;100652.30;;;21.78;53.43
34893;BME280;21106;52.240;20.902;2022-07-29T06:51:19;100659.44;;;21.92;53.20
34893;BME280;21106;52.240;20.902;2022-07-29T06:56:25;100650.94;;;21.98;52.70
34893;BME280;21106;52.240;20.902;2022-07-29T07:01:31;100656.17;;;21.99;52.50
34893;BME280;21106;52.240;20.902;2022-07-29T07:06:37;100654.81;;;21.99;52.32
34893;BME280;21106;52.240;20.902;2022-07-29T07:11:43;100653.50;;;22.09;51.90
34893;BME280;21106;52.240;20.902;2022-07-29T07:16:48;100647.52;;;22.09;51.90
34893;BME280;21106;52.240;20.902;2022-07-29T07:21:55;100645.15;;;22.26;51.73
34893;BME280;21106;52.240;20.902;2022-07-29T07:27:01;100648.20;;;22.27;51.47
34893;BME280;21106;52.240;20.902;2022-07-29T07:32:07;100647.63;;;22.34;51.44
34893;BME280;21106;52.240;20.902;2022-07-29T07:37:13;100654.72;;;22.48;51.06
34893;BME280;21106;52.240;20.902;2022-07-29T07:42:20;100654.30;;;22.51;50.88
34893;BME280;21106;52.240;20.902;2022-07-29T07:47:26;100649.52;;;22.62;50.52
34893;BME280;21106;52.240;20.902;2022-07-29T07:52:31;100652.77;;;22.68;50.24
34893;BME280;21106;52.240;20.902;2022-07-29T07:57:37;100654.53;;;22.71;49.73
34893;BME280;21106;52.240;20.902;2022-07-29T08:02:43;100654.34;;;22.66;49.73
34893;BME280;21106;52.240;20.902;2022-07-29T08:07:50;100660.89;;;22.81;49.43
34893;BME280;21106;52.240;20.902;2022-07-29T08:12:56;100653.45;;;22.95;49.29
34893;BME280;21106;52.240;20.902;2022-07-29T08:18:02;100651.17;;;23.16;49.32
34893;BME280;21106;52.240;20.902;2022-07-29T08:23:08;100644.52;;;23.37;48.48
34893;BME280;21106;52.240;20.902;2022-07-29T08:28:14;100642.62;;;23.37;48.40
34893;BME280;21106;52.240;20.902;2022-07-29T08:33:19;100638.93;;;23.50;48.41
34893;BME280;21106;52.240;20.902;2022-07-29T08:38:25;100646.86;;;23.58;48.17
34893;BME280;21106;52.240;20.902;2022-07-29T08:43:31;100647.50;;;23.78;47.87
34893;BME280;21106;52.240;20.902;2022-07-29T08:48:41;100646.05;;;23.94;47.64
34893;BME280;21106;52.240;20.902;2022-07-29T08:53:48;100644.10;;;24.10;47.13
34893;BME280;21106;52.240;20.902;2022-07-29T08:58:54;100659.11;;;24.16;46.83
34893;BME280;21106;52.240;20.902;2022-07-29T09:04:04;100650.28;;;24.14;46.70
34893;BME280;21106;52.240;20.902;2022-07-29T09:09:13;100634.06;;;24.13;46.18
34893;BME280;21106;52.240;20.902;2022-07-29T09:19:40;100625.75;;;24.01;45.71
34893;BME280;21106;52.240;20.902;2022-07-29T09:24:47;100631.13;;;23.90;46.07
34893;BME280;21106;52.240;20.902;2022-07-29T09:30:00;100648.86;;;23.87;45.30
34893;BME280;21106;52.240;20.902;2022-07-29T09:35:27;100635.98;;;23.70;45.50
34893;BME280;21106;52.240;20.902;2022-07-29T09:40:34;100620.28;;;23.58;45.62
34893;BME280;21106;52.240;20.902;2022-07-29T09:45:40;100624.95;;;23.58;45.30
34893;BME280;21106;52.240;20.902;2022-07-29T09:50:47;100625.53;;;23.51;44.94
34893;BME280;21106;52.240;20.902;2022-07-29T09:55:56;100613.30;;;23.53;44.77
34893;BME280;21106;52.240;20.902;2022-07-29T10:01:02;100639.59;;;23.45;44.29
34893;BME280;21106;52.240;20.902;2022-07-29T10:06:10;100622.91;;;23.38;44.37
34893;BME280;21106;52.240;20.902;2022-07-29T10:11:18;100614.08;;;23.36;44.64
34893;BME280;21106;52.240;20.902;2022-07-29T10:16:25;100613.78;;;23.35;44.47
34893;BME280;21106;52.240;20.902;2022-07-29T10:21:33;100613.55;;;23.36;44.47
34893;BME280;21106;52.240;20.902;2022-07-29T10:26:39;100594.39;;;23.36;44.47
34893;BME280;21106;52.240;20.902;2022-07-29T10:32:06;100592.87;;;23.40;44.53
34893;BME280;21106;52.240;20.902;2022-07-29T10:37:18;100594.56;;;23.41;44.24
34893;BME280;21106;52.240;20.902;2022-07-29T10:42:25;100589.91;;;23.42;44.10
34893;BME280;21106;52.240;20.902;2022-07-29T10:47:33;100584.75;;;23.43;43.84
34893;BME280;21106;52.240;20.902;2022-07-29T10:52:53;100595.03;;;23.47;43.71
34893;BME280;21106;52.240;20.902;2022-07-29T10:58:12;100591.02;;;23.50;43.72
34893;BME280;21106;52.240;20.902;2022-07-29T11:09:14;100577.45;;;23.55;43.50
34893;BME280;21106;52.240;20.902;2022-07-29T11:13:57;100566.59;;;23.57;42.97
34893;BME280;21106;52.240;20.902;2022-07-29T11:24:30;100561.09;;;23.67;43.17
34893;BME280;21106;52.240;20.902;2022-07-29T11:29:51;100563.78;;;23.82;42.77
34893;BME280;21106;52.240;20.902;2022-07-29T11:35:18;100573.77;;;23.77;42.21
34893;BME280;21106;52.240;20.902;2022-07-29T11:40:25;100560.27;;;23.75;42.70
34893;BME280;21106;52.240;20.902;2022-07-29T11:45:45;100581.89;;;23.74;42.18
34893;BME280;21106;52.240;20.902;2022-07-29T11:50:52;100554.42;;;23.72;42.56
34893;BME280;21106;52.240;20.902;2022-07-29T11:55:58;100573.53;;;23.78;42.15
34893;BME280;21106;52.240;20.902;2022-07-29T12:01:04;100549.92;;;23.77;42.09
34893;BME280;21106;52.240;20.902;2022-07-29T12:06:13;100538.67;;;23.76;41.50
34893;BME280;21106;52.240;20.902;2022-07-29T12:11:19;100544.23;;;23.79;41.71
34893;BME280;21106;52.240;20.902;2022-07-29T12:16:36;100554.41;;;23.90;41.85
34893;BME280;21106;52.240;20.902;2022-07-29T12:21:44;100553.57;;;23.98;41.43
34893;BME280;21106;52.240;20.902;2022-07-29T12:26:52;100538.69;;;24.03;41.59
34893;BME280;21106;52.240;20.902;2022-07-29T12:31:58;100542.69;;;24.10;41.04
34893;BME280;21106;52.240;20.902;2022-07-29T12:37:04;100540.11;;;24.15;40.83
34893;BME280;21106;52.240;20.902;2022-07-29T12:42:14;100531.04;;;24.14;40.85
34893;BME280;21106;52.240;20.902;2022-07-29T12:47:21;100527.77;;;24.15;40.78
34893;BME280;21106;52.240;20.902;2022-07-29T12:52:32;100528.98;;;24.19;40.58
34893;BME280;21106;52.240;20.902;2022-07-29T12:57:50;100534.02;;;24.22;40.80
34893;BME280;21106;52.240;20.902;2022-07-29T13:08:17;100537.72;;;24.27;40.45
34893;BME280;21106;52.240;20.902;2022-07-29T13:13:25;100525.23;;;24.22;40.35
34893;BME280;21106;52.240;20.902;2022-07-29T13:18:33;100510.16;;;24.22;40.03
34893;BME280;21106;52.240;20.902;2022-07-29T13:23:41;100509.79;;;24.19;39.83
34893;BME280;21106;52.240;20.902;2022-07-29T13:28:47;100502.33;;;24.17;40.36
34893;BME280;21106;52.240;20.902;2022-07-29T13:33:52;100501.84;;;24.29;40.34
34893;BME280;21106;52.240;20.902;2022-07-29T13:38:58;100507.23;;;24.35;40.06
34893;BME280;21106;52.240;20.902;2022-07-29T13:44:06;100497.70;;;24.38;39.76
34893;BME280;21106;52.240;20.902;2022-07-29T13:49:12;100499.97;;;24.41;39.89
34893;BME280;21106;52.240;20.902;2022-07-29T13:54:17;100503.95;;;24.36;39.71
34893;BME280;21106;52.240;20.902;2022-07-29T13:59:23;100495.85;;;24.41;40.02
34893;BME280;21106;52.240;20.902;2022-07-29T14:04:29;100489.35;;;24.45;39.64
34893;BME280;21106;52.240;20.902;2022-07-29T14:09:35;100492.77;;;24.49;39.68
34893;BME280;21106;52.240;20.902;2022-07-29T14:14:41;100479.97;;;24.52;39.47
34893;BME280;21106;52.240;20.902;2022-07-29T14:21:02;100482.78;;;24.55;38.61
34893;BME280;21106;52.240;20.902;2022-07-29T14:26:08;100477.41;;;24.27;38.54
34893;BME280;21106;52.240;20.902;2022-07-29T14:31:14;100476.26;;;24.05;38.72
34893;BME280;21106;52.240;20.902;2022-07-29T14:36:20;100462.97;;;24.02;38.66
34893;BME280;21106;52.240;20.902;2022-07-29T14:41:26;100459.11;;;23.92;38.83
34893;BME280;21106;52.240;20.902;2022-07-29T14:46:33;100477.84;;;23.95;38.76
34893;BME280;21106;52.240;20.902;2022-07-29T14:51:39;100454.16;;;23.91;38.81
34893;BME280;21106;52.240;20.902;2022-07-29T14:56:45;100446.94;;;23.97;38.70
34893;BME280;21106;52.240;20.902;2022-07-29T15:01:52;100449.06;;;24.04;38.57
34893;BME280;21106;52.240;20.902;2022-07-29T15:06:57;100444.63;;;24.03;38.32
34893;BME280;21106;52.240;20.902;2022-07-29T15:12:03;100444.09;;;24.12;38.27
34893;BME280;21106;52.240;20.902;2022-07-29T15:17:10;100431.68;;;24.10;37.79
34893;BME280;21106;52.240;20.902;2022-07-29T15:22:16;100431.38;;;24.00;37.87
34893;BME280;21106;52.240;20.902;2022-07-29T15:27:22;100410.62;;;24.01;37.68
34893;BME280;21106;52.240;20.902;2022-07-29T15:32:27;100419.05;;;24.00;37.59
34893;BME280;21106;52.240;20.902;2022-07-29T15:37:33;100427.92;;;23.93;37.95
34893;BME280;21106;52.240;20.902;2022-07-29T15:42:40;100410.27;;;23.89;38.00
34893;BME280;21106;52.240;20.902;2022-07-29T15:47:46;100407.22;;;23.88;38.07
34893;BME280;21106;52.240;20.902;2022-07-29T15:52:51;100407.09;;;23.83;37.95
34893;BME280;21106;52.240;20.902;2022-07-29T15:57:57;100407.47;;;23.77;38.02
34893;BME280;21106;52.240;20.902;2022-07-29T16:03:03;100405.21;;;23.74;38.23
34893;BME280;21106;52.240;20.902;2022-07-29T16:08:08;100414.48;;;23.73;38.08
34893;BME280;21106;52.240;20.902;2022-07-29T16:13:14;100403.52;;;23.73;38.31
34893;BME280;21106;52.240;20.902;2022-07-29T16:18:20;100393.13;;;23.73;38.11
34893;BME280;21106;52.240;20.902;2022-07-29T16:23:26;100404.53;;;23.70;38.26
34893;BME280;21106;52.240;20.902;2022-07-29T16:28:33;100392.28;;;23.63;38.08
34893;BME280;21106;52.240;20.902;2022-07-29T16:33:39;100390.47;;;23.57;37.94
34893;BME280;21106;52.240;20.902;2022-07-29T16:38:45;100389.95;;;23.57;37.78
34893;BME280;21106;52.240;20.902;2022-07-29T16:43:51;100387.81;;;23.50;38.09
34893;BME280;21106;52.240;20.902;2022-07-29T16:48:57;100394.62;;;23.48;38.16
34893;BME280;21106;52.240;20.902;2022-07-29T16:54:03;100408.36;;;23.50;37.96
34893;BME280;21106;52.240;20.902;2022-07-29T16:59:10;100408.30;;;23.48;38.04
34893;BME280;21106;52.240;20.902;2022-07-29T17:04:16;100415.68;;;23.47;37.93
34893;BME280;21106;52.240;20.902;2022-07-29T17:09:22;100417.28;;;23.46;37.96
34893;BME280;21106;52.240;20.902;2022-07-29T17:14:29;100418.86;;;23.44;37.91
34893;BME280;21106;52.240;20.902;2022-07-29T17:19:36;100417.48;;;23.44;37.79
34893;BME280;21106;52.240;20.902;2022-07-29T17:24:45;100416.44;;;23.45;37.63
34893;BME280;21106;52.240;20.902;2022-07-29T17:29:51;100406.37;;;23.48;37.45
34893;BME280;21106;52.240;20.902;2022-07-29T17:34:56;100410.48;;;23.48;37.65
34893;BME280;21106;52.240;20.902;2022-07-29T17:40:03;100415.68;;;23.47;37.46
34893;BME280;21106;52.240;20.902;2022-07-29T17:45:09;100416.97;;;23.45;37.31
34893;BME280;21106;52.240;20.902;2022-07-29T17:50:15;100421.31;;;23.43;37.49
34893;BME280;21106;52.240;20.902;2022-07-29T17:55:22;100413.25;;;23.39;37.65
34893;BME280;21106;52.240;20.902;2022-07-29T18:00:28;100413.70;;;23.36;37.80
34893;BME280;21106;52.240;20.902;2022-07-29T18:05:38;100414.50;;;23.28;38.29
34893;BME280;21106;52.240;20.902;2022-07-29T18:10:45;100418.22;;;23.15;38.67
34893;BME280;21106;52.240;20.902;2022-07-29T18:15:53;100406.31;;;23.19;38.98
34893;BME280;21106;52.240;20.902;2022-07-29T18:20:58;100414.27;;;23.11;39.23
34893;BME280;21106;52.240;20.902;2022-07-29T18:26:12;100416.11;;;23.08;39.49
34893;BME280;21106;52.240;20.902;2022-07-29T18:31:55;100409.94;;;23.04;39.77
34893;BME280;21106;52.240;20.902;2022-07-29T18:37:03;100414.95;;;22.98;39.92
34893;BME280;21106;52.240;20.902;2022-07-29T18:42:09;100416.09;;;22.90;40.20
34893;BME280;21106;52.240;20.902;2022-07-29T18:47:14;100424.37;;;22.84;40.44
34893;BME280;21106;52.240;20.902;2022-07-29T18:52:20;100419.28;;;22.78;40.68
34893;BME280;21106;52.240;20.902;2022-07-29T18:57:26;100417.88;;;22.69;40.97
34893;BME280;21106;52.240;20.902;2022-07-29T19:02:32;100421.80;;;22.64;41.06
34893;BME280;21106;52.240;20.902;2022-07-29T19:07:38;100418.56;;;22.49;41.44
34893;BME280;21106;52.240;20.902;2022-07-29T19:12:44;100434.39;;;22.40;41.63
34893;BME280;21106;52.240;20.902;2022-07-29T19:17:50;100435.19;;;22.32;41.76
34893;BME280;21106;52.240;20.902;2022-07-29T19:22:55;100444.03;;;22.18;41.87
34893;BME280;21106;52.240;20.902;2022-07-29T19:28:01;100435.67;;;22.07;41.92
34893;BME280;21106;52.240;20.902;2022-07-29T19:33:07;100444.39;;;21.90;41.98
